sensor_id;sensor_type;location;lat;lon;timestamp;temperature;humidity
61807;DHT22;47726;52.766;6.606;2022-12-20T00:01:18;8.00;99.90
61807;DHT22;47726;52.766;6.606;2022-12-20T00:03:45;8.00;99.90
61807;DHT22;47726;52.766;6.606;2022-12-20T00:06:13;8.00;99.90
61807;DHT22;47726;52.766;6.606;2022-12-20T00:08:39;8.00;99.90
61807;DHT22;47726;52.766;6.606;2022-12-20T00:11:06;8.00;99.90
61807;DHT22;47726;52.766;6.606;2022-12-20T00:13:32;8.00;99.90
61807;DHT22;47726;52.766;6.606;2022-12-20T00:18:30;8.00;99.90
61807;DHT22;47726;52.766;6.606;2022-12-20T00:21:01;8.00;99.90
61807;DHT22;47726;52.766;6.606;2022-12-20T00:23:27;8.00;99.90
61807;DHT22;47726;52.766;6.606;2022-12-20T00:26:00;8.00;99.90
61807;DHT22;47726;52.766;6.606;2022-12-20T00:28:26;8.00;99.90
61807;DHT22;47726;52.766;6.606;2022-12-20T00:30:55;8.00;99.90
61807;DHT22;47726;52.766;6.606;2022-12-20T00:33:21;8.00;99.90
61807;DHT22;47726;52.766;6.606;2022-12-20T00:35:46;8.10;99.90
61807;DHT22;47726;52.766;6.606;2022-12-20T00:38:12;8.10;99.90
61807;DHT22;47726;52.766;6.606;2022-12-20T00:40:37;8.10;99.90
61807;DHT22;47726;52.766;6.606;2022-12-20T00:43:03;8.10;99.90
61807;DHT22;47726;52.766;6.606;2022-12-20T00:45:29;8.10;99.90
61807;DHT22;47726;52.766;6.606;2022-12-20T00:47:55;8.10;99.90
61807;DHT22;47726;52.766;6.606;2022-12-20T00:50:20;8.10;99.90
61807;DHT22;47726;52.766;6.606;2022-12-20T00:52:46;8.10;99.90
61807;DHT22;47726;52.766;6.606;2022-12-20T00:55:12;8.20;99.90
61807;DHT22;47726;52.766;6.606;2022-12-20T00:57:37;8.20;99.90
61807;DHT22;47726;52.766;6.606;2022-12-20T01:00:03;8.10;99.90
61807;DHT22;47726;52.766;6.606;2022-12-20T01:02:29;8.10;99.90
61807;DHT22;47726;52.766;6.606;2022-12-20T01:04:55;8.20;99.90
61807;DHT22;47726;52.766;6.606;2022-12-20T01:07:20;8.20;99.90
61807;DHT22;47726;52.766;6.606;2022-12-20T01:09:48;8.10;99.90
61807;DHT22;47726;52.766;6.606;2022-12-20T01:12:13;8.20;99.90
61807;DHT22;47726;52.766;6.606;2022-12-20T01:14:39;8.20;99.90
61807;DHT22;47726;52.766;6.606;2022-12-20T01:17:05;8.20;99.90
61807;DHT22;47726;52.766;6.606;2022-12-20T01:19:31;8.20;99.90
61807;DHT22;47726;52.766;6.606;2022-12-20T01:21:57;8.20;99.90
61807;DHT22;47726;52.766;6.606;2022-12-20T01:24:23;8.20;99.90
61807;DHT22;47726;52.766;6.606;2022-12-20T01:26:49;8.20;99.90
61807;DHT22;47726;52.766;6.606;2022-12-20T01:29:14;8.20;99.90
61807;DHT22;47726;52.766;6.606;2022-12-20T01:31:40;8.20;99.90
61807;DHT22;47726;52.766;6.606;2022-12-20T01:34:06;8.20;99.90
61807;DHT22;47726;52.766;6.606;2022-12-20T01:36:34;8.20;99.90
61807;DHT22;47726;52.766;6.606;2022-12-20T01:39:14;8.20;99.90
61807;DHT22;47726;52.766;6.606;2022-12-20T01:41:41;8.20;99.90
61807;DHT22;47726;52.766;6.606;2022-12-20T01:46:44;8.20;99.90
61807;DHT22;47726;52.766;6.606;2022-12-20T01:51:49;8.20;99.90
61807;DHT22;47726;52.766;6.606;2022-12-20T01:54:20;8.20;99.90
61807;DHT22;47726;52.766;6.606;2022-12-20T01:56:50;8.20;99.90
61807;DHT22;47726;52.766;6.606;2022-12-20T01:59:18;8.20;99.90
61807;DHT22;47726;52.766;6.606;2022-12-20T02:01:44;8.20;99.90
61807;DHT22;47726;52.766;6.606;2022-12-20T02:04:10;8.20;99.90
61807;DHT22;47726;52.766;6.606;2022-12-20T02:06:36;8.20;99.90
61807;DHT22;47726;52.766;6.606;2022-12-20T02:09:03;8.20;99.90
61807;DHT22;47726;52.766;6.606;2022-12-20T02:14:31;8.20;99.90
61807;DHT22;47726;52.766;6.606;2022-12-20T02:29:27;8.30;99.90
61807;DHT22;47726;52.766;6.606;2022-12-20T02:32:07;8.30;99.90
61807;DHT22;47726;52.766;6.606;2022-12-20T02:34:35;8.30;99.90
61807;DHT22;47726;52.766;6.606;2022-12-20T02:37:02;8.30;99.90
61807;DHT22;47726;52.766;6.606;2022-12-20T02:39:30;8.40;99.90
61807;DHT22;47726;52.766;6.606;2022-12-20T02:42:10;8.40;99.90
61807;DHT22;47726;52.766;6.606;2022-12-20T02:44:43;8.40;99.90
61807;DHT22;47726;52.766;6.606;2022-12-20T02:48:01;8.40;99.90
61807;DHT22;47726;52.766;6.606;2022-12-20T02:50:37;8.40;99.90
61807;DHT22;47726;52.766;6.606;2022-12-20T02:53:06;8.40;99.90
61807;DHT22;47726;52.766;6.606;2022-12-20T02:55:45;8.40;99.90
61807;DHT22;47726;52.766;6.606;2022-12-20T02:58:22;8.40;99.90
61807;DHT22;47726;52.766;6.606;2022-12-20T03:00:52;8.40;99.90
61807;DHT22;47726;52.766;6.606;2022-12-20T03:03:20;8.40;99.90
61807;DHT22;47726;52.766;6.606;2022-12-20T03:05:54;8.50;99.90
61807;DHT22;47726;52.766;6.606;2022-12-20T03:08:21;8.50;99.90
61807;DHT22;47726;52.766;6.606;2022-12-20T03:10:47;8.50;99.90
61807;DHT22;47726;52.766;6.606;2022-12-20T03:13:13;8.40;99.90
61807;DHT22;47726;52.766;6.606;2022-12-20T03:15:39;8.50;99.90
61807;DHT22;47726;52.766;6.606;2022-12-20T03:18:05;8.50;99.90
61807;DHT22;47726;52.766;6.606;2022-12-20T03:20:31;8.50;99.90
61807;DHT22;47726;52.766;6.606;2022-12-20T03:22:57;8.50;99.90
61807;DHT22;47726;52.766;6.606;2022-12-20T03:25:22;8.50;99.90
61807;DHT22;47726;52.766;6.606;2022-12-20T03:27:48;8.50;99.90
61807;DHT22;47726;52.766;6.606;2022-12-20T03:30:14;8.50;99.90
61807;DHT22;47726;52.766;6.606;2022-12-20T03:32:40;8.50;99.90
61807;DHT22;47726;52.766;6.606;2022-12-20T03:35:06;8.50;99.90
61807;DHT22;47726;52.766;6.606;2022-12-20T03:37:31;8.50;99.90
61807;DHT22;47726;52.766;6.606;2022-12-20T03:39:57;8.50;99.90
61807;DHT22;47726;52.766;6.606;2022-12-20T03:42:23;8.50;99.90
61807;DHT22;47726;52.766;6.606;2022-12-20T03:44:48;8.50;99.90
61807;DHT22;47726;52.766;6.606;2022-12-20T03:47:14;8.50;99.90
61807;DHT22;47726;52.766;6.606;2022-12-20T03:49:40;8.50;99.90
61807;DHT22;47726;52.766;6.606;2022-12-20T03:52:05;8.50;99.90
61807;DHT22;47726;52.766;6.606;2022-12-20T03:54:31;8.50;99.90
61807;DHT22;47726;52.766;6.606;2022-12-20T03:56:57;8.50;99.90
61807;DHT22;47726;52.766;6.606;2022-12-20T03:59:22;8.50;99.90
61807;DHT22;47726;52.766;6.606;2022-12-20T04:01:48;8.50;99.90
61807;DHT22;47726;52.766;6.606;2022-12-20T04:04:14;8.50;99.90
61807;DHT22;47726;52.766;6.606;2022-12-20T04:06:40;8.50;99.90
61807;DHT22;47726;52.766;6.606;2022-12-20T04:09:06;8.50;99.90
61807;DHT22;47726;52.766;6.606;2022-12-20T04:11:32;8.50;99.90
61807;DHT22;47726;52.766;6.606;2022-12-20T04:13:58;8.50;99.90
61807;DHT22;47726;52.766;6.606;2022-12-20T04:16:26;8.60;99.90
61807;DHT22;47726;52.766;6.606;2022-12-20T04:18:52;8.50;99.90
61807;DHT22;47726;52.766;6.606;2022-12-20T04:21:29;8.60;99.90
61807;DHT22;47726;52.766;6.606;2022-12-20T04:23:55;8.60;99.90
61807;DHT22;47726;52.766;6.606;2022-12-20T04:26:21;8.60;99.90
61807;DHT22;47726;52.766;6.606;2022-12-20T04:28:47;8.60;99.90
61807;DHT22;47726;52.766;6.606;2022-12-20T04:31:12;8.60;99.90
61807;DHT22;47726;52.766;6.606;2022-12-20T04:33:39;8.60;99.90
61807;DHT22;47726;52.766;6.606;2022-12-20T04:36:05;8.60;99.90
61807;DHT22;47726;52.766;6.606;2022-12-20T04:38:30;8.60;99.90
61807;DHT22;47726;52.766;6.606;2022-12-20T04:40:56;8.60;99.90
61807;DHT22;47726;52.766;6.606;2022-12-20T04:43:23;8.60;99.90
61807;DHT22;47726;52.766;6.606;2022-12-20T04:45:50;8.60;99.90
61807;DHT22;47726;52.766;6.606;2022-12-20T04:48:17;8.60;99.90
61807;DHT22;47726;52.766;6.606;2022-12-20T04:50:47;8.60;99.90
61807;DHT22;47726;52.766;6.606;2022-12-20T04:53:13;8.60;99.90
61807;DHT22;47726;52.766;6.606;2022-12-20T04:55:58;8.60;99.90
61807;DHT22;47726;52.766;6.606;2022-12-20T04:58:23;8.60;99.90
61807;DHT22;47726;52.766;6.606;2022-12-20T05:00:49;8.60;99.90
61807;DHT22;47726;52.766;6.606;2022-12-20T05:03:17;8.70;99.90
61807;DHT22;47726;52.766;6.606;2022-12-20T05:05:43;8.70;99.90
61807;DHT22;47726;52.766;6.606;2022-12-20T05:08:09;8.70;99.90
61807;DHT22;47726;52.766;6.606;2022-12-20T05:10:34;8.70;99.90
61807;DHT22;47726;52.766;6.606;2022-12-20T05:13:00;8.70;99.90
61807;DHT22;47726;52.766;6.606;2022-12-20T05:15:26;8.70;99.90
61807;DHT22;47726;52.766;6.606;2022-12-20T05:17:51;8.70;99.90
61807;DHT22;47726;52.766;6.606;2022-12-20T05:20:17;8.70;99.90
61807;DHT22;47726;52.766;6.606;2022-12-20T05:22:42;8.70;99.90
61807;DHT22;47726;52.766;6.606;2022-12-20T05:25:27;8.70;99.90
61807;DHT22;47726;52.766;6.606;2022-12-20T05:28:11;8.70;99.90
61807;DHT22;47726;52.766;6.606;2022-12-20T05:30:37;8.70;99.90
61807;DHT22;47726;52.766;6.606;2022-12-20T05:33:02;8.70;99.90
61807;DHT22;47726;52.766;6.606;2022-12-20T05:35:28;8.80;99.90
61807;DHT22;47726;52.766;6.606;2022-12-20T05:37:54;8.80;99.90
61807;DHT22;47726;52.766;6.606;2022-12-20T05:40:19;8.80;99.90
61807;DHT22;47726;52.766;6.606;2022-12-20T05:42:45;8.80;99.90
61807;DHT22;47726;52.766;6.606;2022-12-20T05:45:10;8.80;99.90
61807;DHT22;47726;52.766;6.606;2022-12-20T05:47:36;8.80;99.90
61807;DHT22;47726;52.766;6.606;2022-12-20T05:50:03;8.80;99.90
61807;DHT22;47726;52.766;6.606;2022-12-20T05:52:29;8.80;99.90
61807;DHT22;47726;52.766;6.606;2022-12-20T05:54:55;8.80;99.90
61807;DHT22;47726;52.766;6.606;2022-12-20T05:57:20;8.80;99.90
61807;DHT22;47726;52.766;6.606;2022-12-20T05:59:46;8.80;99.90
61807;DHT22;47726;52.766;6.606;2022-12-20T06:02:12;8.80;99.90
61807;DHT22;47726;52.766;6.606;2022-12-20T06:04:38;8.80;99.90
61807;DHT22;47726;52.766;6.606;2022-12-20T06:07:04;8.80;99.90
61807;DHT22;47726;52.766;6.606;2022-12-20T06:09:31;8.80;99.90
61807;DHT22;47726;52.766;6.606;2022-12-20T06:11:57;8.90;99.90
61807;DHT22;47726;52.766;6.606;2022-12-20T06:14:22;8.90;99.90
61807;DHT22;47726;52.766;6.606;2022-12-20T06:16:48;8.90;99.90
61807;DHT22;47726;52.766;6.606;2022-12-20T06:19:14;8.90;99.90
61807;DHT22;47726;52.766;6.606;2022-12-20T06:21:40;8.90;99.90
61807;DHT22;47726;52.766;6.606;2022-12-20T06:24:06;8.90;99.90
61807;DHT22;47726;52.766;6.606;2022-12-20T06:26:32;9.00;99.90
61807;DHT22;47726;52.766;6.606;2022-12-20T06:29:02;9.00;99.90
61807;DHT22;47726;52.766;6.606;2022-12-20T06:31:28;9.00;99.90
61807;DHT22;47726;52.766;6.606;2022-12-20T06:33:54;9.00;99.90
61807;DHT22;47726;52.766;6.606;2022-12-20T06:36:19;9.00;99.90
61807;DHT22;47726;52.766;6.606;2022-12-20T06:38:45;9.00;99.90
61807;DHT22;47726;52.766;6.606;2022-12-20T06:41:10;9.00;99.90
61807;DHT22;47726;52.766;6.606;2022-12-20T06:43:37;9.10;99.90
61807;DHT22;47726;52.766;6.606;2022-12-20T06:46:02;9.10;99.90
61807;DHT22;47726;52.766;6.606;2022-12-20T06:48:29;9.10;99.90
61807;DHT22;47726;52.766;6.606;2022-12-20T06:50:54;9.10;99.90
61807;DHT22;47726;52.766;6.606;2022-12-20T06:53:20;9.10;99.90
61807;DHT22;47726;52.766;6.606;2022-12-20T06:55:49;9.10;99.90
61807;DHT22;47726;52.766;6.606;2022-12-20T06:58:16;9.10;99.90
61807;DHT22;47726;52.766;6.606;2022-12-20T07:00:42;9.10;99.90
61807;DHT22;47726;52.766;6.606;2022-12-20T07:03:07;9.10;99.90
61807;DHT22;47726;52.766;6.606;2022-12-20T07:05:33;9.10;99.90
61807;DHT22;47726;52.766;6.606;2022-12-20T07:07:59;9.10;99.90
61807;DHT22;47726;52.766;6.606;2022-12-20T07:10:24;9.10;99.90
61807;DHT22;47726;52.766;6.606;2022-12-20T07:12:51;9.20;99.90
61807;DHT22;47726;52.766;6.606;2022-12-20T07:15:17;9.20;99.90
61807;DHT22;47726;52.766;6.606;2022-12-20T07:17:43;9.20;99.90
61807;DHT22;47726;52.766;6.606;2022-12-20T07:20:09;9.10;99.90
61807;DHT22;47726;52.766;6.606;2022-12-20T07:22:35;9.10;99.90
61807;DHT22;47726;52.766;6.606;2022-12-20T07:25:00;9.10;99.90
61807;DHT22;47726;52.766;6.606;2022-12-20T07:27:26;9.10;99.90
61807;DHT22;47726;52.766;6.606;2022-12-20T07:29:52;9.20;99.90
61807;DHT22;47726;52.766;6.606;2022-12-20T07:32:17;9.20;99.90
61807;DHT22;47726;52.766;6.606;2022-12-20T07:34:43;9.20;99.90
61807;DHT22;47726;52.766;6.606;2022-12-20T07:37:09;9.20;99.90
61807;DHT22;47726;52.766;6.606;2022-12-20T07:39:34;9.20;99.90
61807;DHT22;47726;52.766;6.606;2022-12-20T07:42:00;9.20;99.90
61807;DHT22;47726;52.766;6.606;2022-12-20T07:44:25;9.20;99.90
61807;DHT22;47726;52.766;6.606;2022-12-20T07:46:51;9.20;99.90
61807;DHT22;47726;52.766;6.606;2022-12-20T07:49:16;9.20;99.90
61807;DHT22;47726;52.766;6.606;2022-12-20T07:51:51;9.20;99.90
61807;DHT22;47726;52.766;6.606;2022-12-20T07:54:34;9.20;99.90
61807;DHT22;47726;52.766;6.606;2022-12-20T07:57:05;9.20;99.90
61807;DHT22;47726;52.766;6.606;2022-12-20T07:59:39;9.20;99.90
61807;DHT22;47726;52.766;6.606;2022-12-20T08:02:16;9.20;99.90
61807;DHT22;47726;52.766;6.606;2022-12-20T08:04:43;9.20;99.90
61807;DHT22;47726;52.766;6.606;2022-12-20T08:07:09;9.20;99.90
61807;DHT22;47726;52.766;6.606;2022-12-20T08:09:38;9.20;99.90
61807;DHT22;47726;52.766;6.606;2022-12-20T08:12:06;9.20;99.90
61807;DHT22;47726;52.766;6.606;2022-12-20T08:14:33;9.20;99.90
61807;DHT22;47726;52.766;6.606;2022-12-20T08:16:59;9.20;99.90
61807;DHT22;47726;52.766;6.606;2022-12-20T08:19:25;9.10;99.90
61807;DHT22;47726;52.766;6.606;2022-12-20T08:21:50;9.10;99.90
61807;DHT22;47726;52.766;6.606;2022-12-20T08:24:16;9.20;99.90
61807;DHT22;47726;52.766;6.606;2022-12-20T08:26:42;9.20;99.90
61807;DHT22;47726;52.766;6.606;2022-12-20T08:29:07;9.20;99.90
61807;DHT22;47726;52.766;6.606;2022-12-20T08:31:37;9.20;99.90
61807;DHT22;47726;52.766;6.606;2022-12-20T08:34:04;9.20;99.90
61807;DHT22;47726;52.766;6.606;2022-12-20T08:36:29;9.20;99.90
61807;DHT22;47726;52.766;6.606;2022-12-20T08:38:55;9.10;99.90
61807;DHT22;47726;52.766;6.606;2022-12-20T08:41:20;9.20;99.90
61807;DHT22;47726;52.766;6.606;2022-12-20T08:43:46;9.10;99.90
61807;DHT22;47726;52.766;6.606;2022-12-20T08:46:12;9.10;99.90
61807;DHT22;47726;52.766;6.606;2022-12-20T08:48:38;9.10;99.90
61807;DHT22;47726;52.766;6.606;2022-12-20T08:51:07;9.10;99.90
61807;DHT22;47726;52.766;6.606;2022-12-20T08:53:34;9.10;99.90
61807;DHT22;47726;52.766;6.606;2022-12-20T08:56:12;9.10;99.90
61807;DHT22;47726;52.766;6.606;2022-12-20T08:58:38;9.10;99.90
61807;DHT22;47726;52.766;6.606;2022-12-20T09:01:06;9.20;99.90
61807;DHT22;47726;52.766;6.606;2022-12-20T09:03:33;9.20;99.90
61807;DHT22;47726;52.766;6.606;2022-12-20T09:06:00;9.20;99.90
61807;DHT22;47726;52.766;6.606;2022-12-20T09:08:26;9.20;99.90
61807;DHT22;47726;52.766;6.606;2022-12-20T09:10:52;9.20;99.90
61807;DHT22;47726;52.766;6.606;2022-12-20T09:13:18;9.20;99.90
61807;DHT22;47726;52.766;6.606;2022-12-20T09:15:44;9.10;99.90
61807;DHT22;47726;52.766;6.606;2022-12-20T09:18:10;9.20;99.90
61807;DHT22;47726;52.766;6.606;2022-12-20T09:20:41;9.10;99.90
61807;DHT22;47726;52.766;6.606;2022-12-20T09:23:08;9.10;99.90
61807;DHT22;47726;52.766;6.606;2022-12-20T09:25:34;9.10;99.90
61807;DHT22;47726;52.766;6.606;2022-12-20T09:28:02;9.20;99.90
61807;DHT22;47726;52.766;6.606;2022-12-20T09:30:28;9.20;99.90
61807;DHT22;47726;52.766;6.606;2022-12-20T09:32:53;9.20;99.90
61807;DHT22;47726;52.766;6.606;2022-12-20T09:35:19;9.20;99.90
61807;DHT22;47726;52.766;6.606;2022-12-20T09:37:45;9.20;99.90
61807;DHT22;47726;52.766;6.606;2022-12-20T09:40:20;9.20;99.90
61807;DHT22;47726;52.766;6.606;2022-12-20T09:42:47;9.20;99.90
61807;DHT22;47726;52.766;6.606;2022-12-20T09:45:34;9.20;99.90
61807;DHT22;47726;52.766;6.606;2022-12-20T09:48:01;9.20;99.90
61807;DHT22;47726;52.766;6.606;2022-12-20T09:56:32;9.20;99.90
61807;DHT22;47726;52.766;6.606;2022-12-20T09:59:05;9.20;99.90
61807;DHT22;47726;52.766;6.606;2022-12-20T10:01:33;9.20;99.90
61807;DHT22;47726;52.766;6.606;2022-12-20T10:04:05;9.20;99.90
61807;DHT22;47726;52.766;6.606;2022-12-20T10:11:53;9.20;99.90
61807;DHT22;47726;52.766;6.606;2022-12-20T10:17:07;9.20;99.90
61807;DHT22;47726;52.766;6.606;2022-12-20T10:19:50;9.20;99.90
61807;DHT22;47726;52.766;6.606;2022-12-20T10:25:05;9.20;99.90
61807;DHT22;47726;52.766;6.606;2022-12-20T10:27:40;9.20;99.90
61807;DHT22;47726;52.766;6.606;2022-12-20T10:30:13;9.20;99.90
61807;DHT22;47726;52.766;6.606;2022-12-20T10:32:39;9.20;99.90
61807;DHT22;47726;52.766;6.606;2022-12-20T10:37:35;9.20;99.90
61807;DHT22;47726;52.766;6.606;2022-12-20T10:40:01;9.20;99.90
61807;DHT22;47726;52.766;6.606;2022-12-20T10:42:39;9.20;99.90
61807;DHT22;47726;52.766;6.606;2022-12-20T10:45:35;9.20;99.90
61807;DHT22;47726;52.766;6.606;2022-12-20T10:48:04;9.20;99.90
61807;DHT22;47726;52.766;6.606;2022-12-20T10:50:31;9.20;99.90
61807;DHT22;47726;52.766;6.606;2022-12-20T10:53:19;9.20;99.90
61807;DHT22;47726;52.766;6.606;2022-12-20T10:55:46;9.20;99.90
61807;DHT22;47726;52.766;6.606;2022-12-20T10:58:16;9.30;99.90
61807;DHT22;47726;52.766;6.606;2022-12-20T11:00:43;9.20;99.90
61807;DHT22;47726;52.766;6.606;2022-12-20T11:03:21;9.30;99.90
61807;DHT22;47726;52.766;6.606;2022-12-20T11:06:01;9.30;99.90
61807;DHT22;47726;52.766;6.606;2022-12-20T11:08:30;9.30;99.90
61807;DHT22;47726;52.766;6.606;2022-12-20T11:11:12;9.30;99.90
61807;DHT22;47726;52.766;6.606;2022-12-20T11:13:39;9.30;99.90
61807;DHT22;47726;52.766;6.606;2022-12-20T11:16:05;9.30;99.90
61807;DHT22;47726;52.766;6.606;2022-12-20T11:26:57;9.40;99.90
61807;DHT22;47726;52.766;6.606;2022-12-20T11:35:12;9.50;99.90
61807;DHT22;47726;52.766;6.606;2022-12-20T11:43:30;9.50;99.90
61807;DHT22;47726;52.766;6.606;2022-12-20T11:53:57;9.50;99.90
61807;DHT22;47726;52.766;6.606;2022-12-20T11:56:37;9.60;99.90
61807;DHT22;47726;52.766;6.606;2022-12-20T12:01:42;9.60;99.90
61807;DHT22;47726;52.766;6.606;2022-12-20T12:07:08;9.60;99.90
61807;DHT22;47726;52.766;6.606;2022-12-20T12:09:38;9.60;99.90
61807;DHT22;47726;52.766;6.606;2022-12-20T12:12:08;9.60;99.90
61807;DHT22;47726;52.766;6.606;2022-12-20T12:14:49;9.60;99.90
61807;DHT22;47726;52.766;6.606;2022-12-20T12:17:26;9.60;99.90
61807;DHT22;47726;52.766;6.606;2022-12-20T12:19:55;9.60;99.90
61807;DHT22;47726;52.766;6.606;2022-12-20T12:22:28;9.60;99.90
61807;DHT22;47726;52.766;6.606;2022-12-20T12:24:59;9.60;99.90
61807;DHT22;47726;52.766;6.606;2022-12-20T12:27:27;9.60;99.90
61807;DHT22;47726;52.766;6.606;2022-12-20T12:29:57;9.60;99.90
61807;DHT22;47726;52.766;6.606;2022-12-20T12:32:39;9.60;99.90
61807;DHT22;47726;52.766;6.606;2022-12-20T12:40:46;9.60;99.90
61807;DHT22;47726;52.766;6.606;2022-12-20T12:45:51;9.60;99.90
61807;DHT22;47726;52.766;6.606;2022-12-20T12:48:24;9.70;99.90
61807;DHT22;47726;52.766;6.606;2022-12-20T12:50:55;9.70;99.90
61807;DHT22;47726;52.766;6.606;2022-12-20T12:53:43;9.70;99.90
61807;DHT22;47726;52.766;6.606;2022-12-20T12:56:40;9.70;99.90
61807;DHT22;47726;52.766;6.606;2022-12-20T13:20:38;9.70;99.90
61807;DHT22;47726;52.766;6.606;2022-12-20T13:25:34;9.70;99.90
61807;DHT22;47726;52.766;6.606;2022-12-20T13:33:40;9.70;99.90
61807;DHT22;47726;52.766;6.606;2022-12-20T13:41:35;9.70;99.90
61807;DHT22;47726;52.766;6.606;2022-12-20T13:46:53;9.70;99.90
61807;DHT22;47726;52.766;6.606;2022-12-20T13:49:38;9.70;99.90
61807;DHT22;47726;52.766;6.606;2022-12-20T13:54:42;9.70;99.90
61807;DHT22;47726;52.766;6.606;2022-12-20T13:57:14;9.70;99.90
61807;DHT22;47726;52.766;6.606;2022-12-20T13:59:45;9.70;99.90
61807;DHT22;47726;52.766;6.606;2022-12-20T14:02:19;9.70;99.90
61807;DHT22;47726;52.766;6.606;2022-12-20T14:04:56;9.70;99.90
61807;DHT22;47726;52.766;6.606;2022-12-20T14:07:24;9.70;99.90
61807;DHT22;47726;52.766;6.606;2022-12-20T14:09:56;9.70;99.90
61807;DHT22;47726;52.766;6.606;2022-12-20T14:12:22;9.70;99.90
61807;DHT22;47726;52.766;6.606;2022-12-20T14:14:50;9.70;99.90
61807;DHT22;47726;52.766;6.606;2022-12-20T14:19:45;9.70;99.90
61807;DHT22;47726;52.766;6.606;2022-12-20T14:22:11;9.70;99.90
61807;DHT22;47726;52.766;6.606;2022-12-20T14:24:39;9.70;99.90
61807;DHT22;47726;52.766;6.606;2022-12-20T14:27:11;9.70;99.90
61807;DHT22;47726;52.766;6.606;2022-12-20T14:29:39;9.70;99.90
61807;DHT22;47726;52.766;6.606;2022-12-20T14:32:20;9.70;99.90
61807;DHT22;47726;52.766;6.606;2022-12-20T14:34:47;9.70;99.90
61807;DHT22;47726;52.766;6.606;2022-12-20T14:37:26;9.70;99.90
61807;DHT22;47726;52.766;6.606;2022-12-20T14:42:20;9.70;99.90
61807;DHT22;47726;52.766;6.606;2022-12-20T14:44:45;9.70;99.90
61807;DHT22;47726;52.766;6.606;2022-12-20T14:49:37;9.70;99.90
61807;DHT22;47726;52.766;6.606;2022-12-20T14:52:34;9.70;99.90
61807;DHT22;47726;52.766;6.606;2022-12-20T14:57:49;9.80;99.90
61807;DHT22;47726;52.766;6.606;2022-12-20T15:00:30;9.80;99.90
61807;DHT22;47726;52.766;6.606;2022-12-20T15:16:05;9.70;99.90
61807;DHT22;47726;52.766;6.606;2022-12-20T15:18:37;9.70;99.90
61807;DHT22;47726;52.766;6.606;2022-12-20T15:21:12;9.80;99.90
61807;DHT22;47726;52.766;6.606;2022-12-20T15:23:46;9.80;99.90
61807;DHT22;47726;52.766;6.606;2022-12-20T15:26:15;9.80;99.90
61807;DHT22;47726;52.766;6.606;2022-12-20T15:28:41;9.80;99.90
61807;DHT22;47726;52.766;6.606;2022-12-20T15:31:13;9.80;99.90
61807;DHT22;47726;52.766;6.606;2022-12-20T15:33:40;9.80;99.90
61807;DHT22;47726;52.766;6.606;2022-12-20T15:36:15;9.80;99.90
61807;DHT22;47726;52.766;6.606;2022-12-20T15:38:41;9.80;99.90
61807;DHT22;47726;52.766;6.606;2022-12-20T15:41:16;9.80;99.90
61807;DHT22;47726;52.766;6.606;2022-12-20T15:43:43;9.80;99.90
61807;DHT22;47726;52.766;6.606;2022-12-20T15:46:09;9.80;99.90
61807;DHT22;47726;52.766;6.606;2022-12-20T15:48:35;9.80;99.90
61807;DHT22;47726;52.766;6.606;2022-12-20T15:51:01;9.80;99.90
61807;DHT22;47726;52.766;6.606;2022-12-20T15:53:31;9.80;99.90
61807;DHT22;47726;52.766;6.606;2022-12-20T15:55:58;9.80;99.90
61807;DHT22;47726;52.766;6.606;2022-12-20T15:58:27;9.80;99.90
61807;DHT22;47726;52.766;6.606;2022-12-20T16:00:57;9.80;99.90
61807;DHT22;47726;52.766;6.606;2022-12-20T16:03:28;9.80;99.90
61807;DHT22;47726;52.766;6.606;2022-12-20T16:05:54;9.80;99.90
61807;DHT22;47726;52.766;6.606;2022-12-20T16:08:23;9.80;99.90
61807;DHT22;47726;52.766;6.606;2022-12-20T16:10:51;9.80;99.90
61807;DHT22;47726;52.766;6.606;2022-12-20T16:13:22;9.70;99.90
61807;DHT22;47726;52.766;6.606;2022-12-20T16:15:48;9.80;99.90
61807;DHT22;47726;52.766;6.606;2022-12-20T16:18:14;9.80;99.90
61807;DHT22;47726;52.766;6.606;2022-12-20T16:20:41;9.80;99.90
61807;DHT22;47726;52.766;6.606;2022-12-20T16:23:18;9.80;99.90
61807;DHT22;47726;52.766;6.606;2022-12-20T16:25:44;9.80;99.90
61807;DHT22;47726;52.766;6.606;2022-12-20T16:28:10;9.70;99.90
61807;DHT22;47726;52.766;6.606;2022-12-20T16:30:36;9.80;99.90
61807;DHT22;47726;52.766;6.606;2022-12-20T16:33:02;9.70;99.90
61807;DHT22;47726;52.766;6.606;2022-12-20T16:35:30;9.80;99.90
61807;DHT22;47726;52.766;6.606;2022-12-20T16:37:58;9.80;99.90
61807;DHT22;47726;52.766;6.606;2022-12-20T16:40:26;9.80;99.90
61807;DHT22;47726;52.766;6.606;2022-12-20T16:42:53;9.70;99.90
61807;DHT22;47726;52.766;6.606;2022-12-20T16:45:22;9.70;99.90
61807;DHT22;47726;52.766;6.606;2022-12-20T16:47:49;9.70;99.90
61807;DHT22;47726;52.766;6.606;2022-12-20T16:50:15;9.80;99.90
61807;DHT22;47726;52.766;6.606;2022-12-20T16:52:41;9.70;99.90
61807;DHT22;47726;52.766;6.606;2022-12-20T16:55:13;9.70;99.90
61807;DHT22;47726;52.766;6.606;2022-12-20T16:57:39;9.80;99.90
61807;DHT22;47726;52.766;6.606;2022-12-20T17:00:08;9.80;99.90
61807;DHT22;47726;52.766;6.606;2022-12-20T17:02:34;9.80;99.90
61807;DHT22;47726;52.766;6.606;2022-12-20T17:05:00;9.80;99.90
61807;DHT22;47726;52.766;6.606;2022-12-20T17:07:26;9.70;99.90
61807;DHT22;47726;52.766;6.606;2022-12-20T17:09:52;9.80;99.90
61807;DHT22;47726;52.766;6.606;2022-12-20T17:12:20;9.80;99.90
61807;DHT22;47726;52.766;6.606;2022-12-20T17:14:46;9.80;99.90
61807;DHT22;47726;52.766;6.606;2022-12-20T17:17:12;9.80;99.90
61807;DHT22;47726;52.766;6.606;2022-12-20T17:19:38;9.70;99.90
61807;DHT22;47726;52.766;6.606;2022-12-20T17:22:04;9.80;99.90
61807;DHT22;47726;52.766;6.606;2022-12-20T17:24:30;9.70;99.90
61807;DHT22;47726;52.766;6.606;2022-12-20T17:26:56;9.80;99.90
61807;DHT22;47726;52.766;6.606;2022-12-20T17:29:22;9.80;99.90
61807;DHT22;47726;52.766;6.606;2022-12-20T17:31:48;9.80;99.90
61807;DHT22;47726;52.766;6.606;2022-12-20T17:34:14;9.80;99.90
61807;DHT22;47726;52.766;6.606;2022-12-20T17:36:40;9.80;99.90
61807;DHT22;47726;52.766;6.606;2022-12-20T17:39:09;9.80;99.90
61807;DHT22;47726;52.766;6.606;2022-12-20T17:41:34;9.80;99.90
61807;DHT22;47726;52.766;6.606;2022-12-20T17:44:02;9.80;99.90
61807;DHT22;47726;52.766;6.606;2022-12-20T17:46:31;9.80;99.90
61807;DHT22;47726;52.766;6.606;2022-12-20T17:48:57;9.70;99.90
61807;DHT22;47726;52.766;6.606;2022-12-20T17:51:24;9.70;99.90
61807;DHT22;47726;52.766;6.606;2022-12-20T17:53:53;9.70;99.90
61807;DHT22;47726;52.766;6.606;2022-12-20T17:56:23;9.70;99.90
61807;DHT22;47726;52.766;6.606;2022-12-20T17:58:49;9.70;99.90
61807;DHT22;47726;52.766;6.606;2022-12-20T18:01:31;9.70;99.90
61807;DHT22;47726;52.766;6.606;2022-12-20T18:03:59;9.70;99.90
61807;DHT22;47726;52.766;6.606;2022-12-20T18:06:25;9.70;99.90
61807;DHT22;47726;52.766;6.606;2022-12-20T18:08:58;9.70;99.90
61807;DHT22;47726;52.766;6.606;2022-12-20T18:11:26;9.70;99.90
61807;DHT22;47726;52.766;6.606;2022-12-20T18:13:55;9.70;99.90
61807;DHT22;47726;52.766;6.606;2022-12-20T18:16:26;9.70;99.90
61807;DHT22;47726;52.766;6.606;2022-12-20T18:18:52;9.70;99.90
61807;DHT22;47726;52.766;6.606;2022-12-20T18:21:19;9.70;99.90